Terminal Aerodrome Forecast
Issued by NWS

Home | Current Version | Previous Version | Text Only | Print | Product List | Glossary On
Versions: 1 2 3 4 5 6 7 8 9 10 11 12
000
FTUS44 KLIX 291122
TAFMSY
TAF
KMSY 291122Z 2912/3012 28005KT P6SM FEW020 SCT100 BKN250
     FM291400 VRB05KT P6SM SCT040 SCT100 BKN250 PROB30 2921/2924 2SM
      TSRA BKN030CB=

USA.gov is the U.S. government's official web portal to all federal, state and local government web resources and services.